Time;durP1;ratioP1;P1;durP2;ratioP2;P2;SDS_P1;SDS_P2;PMS_P1;PMS_P2;Temp;Humidity;BMP_temperature;BMP_pressure;BME280_temperature;BME280_humidity;BME280_pressure;Samples;Min_cycle;Max_cycle;Signal;HPM_P1;HPM_P2
2021/10/18 00:02:57;;;;;;;13.30;10.90;;;;;;;;;;6220315;28;20244;-52
2021/10/18 00:06:20;;;;;;;11.23;10.13;;;;;;;;;;6218971;28;20245;-57
2021/10/18 00:09:42;;;;;;;11.67;10.47;;;;;;;;;;6230092;28;20204;-54
2021/10/18 00:13:02;;;;;;;12.60;9.27;;;;;;;;;;6216491;28;20311;-56
2021/10/18 00:16:23;;;;;;;11.33;9.73;;;;;;;;;;6219386;28;20197;-54
2021/10/18 00:19:44;;;;;;;10.63;9.27;;;;;;;;;;6224442;28;20205;-57
2021/10/18 00:23:04;;;;;;;11.07;9.87;;;;;;;;;;6219802;28;20343;-50
2021/10/18 00:26:26;;;;;;;12.67;10.73;;;;;;;;;;6219391;28;20299;-55
2021/10/18 00:29:47;;;;;;;11.13;9.73;;;;;;;;;;6229284;28;20256;-56
2021/10/18 00:33:08;;;;;;;11.47;10.07;;;;;;;;;;6220338;28;20232;-54
2021/10/18 00:36:28;;;;;;;13.73;10.63;;;;;;;;;;6223998;28;20291;-55
2021/10/18 00:39:49;;;;;;;14.23;10.30;;;;;;;;;;6236779;28;20192;-55
2021/10/18 00:43:11;;;;;;;10.67;9.67;;;;;;;;;;6221260;28;20224;-57
2021/10/18 00:46:32;;;;;;;11.33;9.83;;;;;;;;;;6221540;28;20885;-54
2021/10/18 00:49:52;;;;;;;11.80;9.40;;;;;;;;;;6228229;28;20224;-56
2021/10/18 00:53:13;;;;;;;11.10;9.87;;;;;;;;;;6222837;28;20228;-55
2021/10/18 00:56:34;;;;;;;11.00;10.03;;;;;;;;;;6219208;28;20241;-55
2021/10/18 00:59:56;;;;;;;13.30;11.57;;;;;;;;;;6228287;28;20205;-57
2021/10/18 01:03:17;;;;;;;11.07;9.70;;;;;;;;;;6217399;28;20228;-57
2021/10/18 01:06:38;;;;;;;12.17;9.50;;;;;;;;;;6218976;28;20240;-55
2021/10/18 01:09:58;;;;;;;11.80;9.73;;;;;;;;;;6230049;28;20201;-54
2021/10/18 01:13:19;;;;;;;13.50;10.27;;;;;;;;;;6201529;28;20225;-56
2021/10/18 01:16:41;;;;;;;16.73;11.43;;;;;;;;;;6221427;28;20228;-57
2021/10/18 01:20:01;;;;;;;11.90;10.30;;;;;;;;;;6232418;28;20212;-57
2021/10/18 01:23:24;;;;;;;12.90;9.60;;;;;;;;;;6218779;28;20251;-54
2021/10/18 01:26:44;;;;;;;10.97;8.77;;;;;;;;;;6219813;28;20232;-55
2021/10/18 01:30:06;;;;;;;13.20;10.60;;;;;;;;;;6233542;28;20202;-55
2021/10/18 01:33:26;;;;;;;13.63;10.87;;;;;;;;;;6222906;28;20236;-57
2021/10/18 01:36:47;;;;;;;13.33;10.77;;;;;;;;;;6224654;28;20506;-55
2021/10/18 01:40:11;;;;;;;13.37;11.07;;;;;;;;;;6233525;28;20189;-55
2021/10/18 01:43:31;;;;;;;12.90;10.77;;;;;;;;;;6219667;28;20248;-57
2021/10/18 01:46:52;;;;;;;11.43;10.23;;;;;;;;;;6221761;28;20232;-57
2021/10/18 01:50:13;;;;;;;11.83;10.63;;;;;;;;;;6229264;28;20221;-53
2021/10/18 01:53:34;;;;;;;12.53;10.97;;;;;;;;;;6214466;28;20725;-57
2021/10/18 01:56:56;;;;;;;12.93;10.17;;;;;;;;;;6216125;28;20224;-57
2021/10/18 02:00:17;;;;;;;11.07;9.90;;;;;;;;;;6227895;28;20205;-55
2021/10/18 02:03:38;;;;;;;11.77;10.53;;;;;;;;;;6212325;28;20892;-56
2021/10/18 02:06:58;;;;;;;13.07;11.77;;;;;;;;;;6214417;28;20392;-53
2021/10/18 02:10:19;;;;;;;12.10;10.47;;;;;;;;;;6228891;28;20193;-56
2021/10/18 02:13:41;;;;;;;14.07;10.40;;;;;;;;;;6219661;28;20241;-57
2021/10/18 02:17:01;;;;;;;16.07;12.43;;;;;;;;;;6224551;28;22272;-57
2021/10/18 02:20:22;;;;;;;12.80;10.83;;;;;;;;;;6232117;28;20194;-54
2021/10/18 02:23:42;;;;;;;14.70;11.60;;;;;;;;;;6221242;28;20256;-55
2021/10/18 02:27:03;;;;;;;12.80;10.83;;;;;;;;;;6222635;28;20228;-55
2021/10/18 02:30:25;;;;;;;11.87;10.67;;;;;;;;;;6233138;28;20193;-57
2021/10/18 02:33:46;;;;;;;14.77;11.37;;;;;;;;;;6219131;28;20294;-56
2021/10/18 02:37:07;;;;;;;13.80;11.93;;;;;;;;;;6220790;28;20335;-53
2021/10/18 02:40:28;;;;;;;15.17;12.03;;;;;;;;;;6231933;28;20787;-55
2021/10/18 02:43:49;;;;;;;12.20;11.00;;;;;;;;;;6218642;28;20228;-56
2021/10/18 02:47:11;;;;;;;13.43;11.00;;;;;;;;;;6220729;28;20319;-56
2021/10/18 02:50:31;;;;;;;12.47;10.90;;;;;;;;;;6229289;28;20228;-57
2021/10/18 02:53:52;;;;;;;16.10;11.30;;;;;;;;;;6217746;28;20263;-55
2021/10/18 02:57:13;;;;;;;14.03;11.27;;;;;;;;;;6218524;28;20331;-57
2021/10/18 03:00:34;;;;;;;13.93;11.97;;;;;;;;;;6231396;28;20229;-56
2021/10/18 03:03:56;;;;;;;14.23;11.13;;;;;;;;;;6218707;28;20232;-54
2021/10/18 03:07:18;;;;;;;16.70;13.13;;;;;;;;;;6219626;28;20244;-56
2021/10/18 03:10:41;;;;;;;17.77;12.67;;;;;;;;;;6231038;28;20774;-57
2021/10/18 03:14:04;;;;;;;14.33;11.37;;;;;;;;;;6219741;28;20256;-56
2021/10/18 03:17:24;;;;;;;12.37;11.17;;;;;;;;;;6222244;28;20240;-55
2021/10/18 03:20:46;;;;;;;15.40;11.53;;;;;;;;;;6230295;28;20192;-56
2021/10/18 03:24:07;;;;;;;12.60;11.30;;;;;;;;;;6217700;28;20250;-54
2021/10/18 03:27:27;;;;;;;16.67;10.90;;;;;;;;;;6219813;28;20565;-54
2021/10/18 03:30:47;;;;;;;11.97;10.77;;;;;;;;;;6230261;28;20888;-55
2021/10/18 03:34:08;;;;;;;15.50;11.90;;;;;;;;;;6214479;28;20569;-55
2021/10/18 03:37:30;;;;;;;12.97;11.47;;;;;;;;;;6216212;28;20637;-57
2021/10/18 03:40:50;;;;;;;12.83;11.43;;;;;;;;;;6229177;28;20285;-51
2021/10/18 03:44:11;;;;;;;13.40;11.47;;;;;;;;;;6217086;28;20333;-52
2021/10/18 03:47:32;;;;;;;13.50;11.70;;;;;;;;;;6219135;28;20236;-52
2021/10/18 03:50:52;;;;;;;13.83;12.60;;;;;;;;;;6226686;28;20225;-56
2021/10/18 03:54:14;;;;;;;12.80;11.23;;;;;;;;;;6224254;28;20606;-54
2021/10/18 03:57:34;;;;;;;14.80;11.67;;;;;;;;;;6216639;28;20224;-55
2021/10/18 04:00:55;;;;;;;14.50;11.13;;;;;;;;;;6229130;28;22178;-55
2021/10/18 04:04:16;;;;;;;13.83;12.43;;;;;;;;;;6227721;28;20224;-56
2021/10/18 04:07:38;;;;;;;14.60;11.87;;;;;;;;;;6218897;28;20236;-56
2021/10/18 04:11:01;;;;;;;15.10;12.17;;;;;;;;;;6231382;28;20201;-55
2021/10/18 04:14:21;;;;;;;11.83;10.30;;;;;;;;;;6228330;28;20213;-56
2021/10/18 04:17:42;;;;;;;15.57;11.80;;;;;;;;;;6217587;28;20240;-55
2021/10/18 04:21:05;;;;;;;16.57;11.47;;;;;;;;;;6229106;28;20546;-56
2021/10/18 04:24:25;;;;;;;13.90;11.63;;;;;;;;;;6225362;28;20221;-57
2021/10/18 04:27:47;;;;;;;15.13;12.07;;;;;;;;;;6218203;28;20537;-55
2021/10/18 04:31:08;;;;;;;18.27;13.03;;;;;;;;;;6225982;28;20185;-54
2021/10/18 04:34:29;;;;;;;14.87;11.80;;;;;;;;;;6224926;28;21868;-55
2021/10/18 04:37:50;;;;;;;12.93;11.63;;;;;;;;;;6218165;28;20228;-57
2021/10/18 04:41:11;;;;;;;14.27;12.77;;;;;;;;;;6226833;28;20193;-57
2021/10/18 04:44:33;;;;;;;13.93;11.90;;;;;;;;;;6230520;28;21212;-56
2021/10/18 04:47:53;;;;;;;13.03;11.07;;;;;;;;;;6216824;28;20259;-55
2021/10/18 04:51:14;;;;;;;13.33;11.97;;;;;;;;;;6217352;28;20538;-55
2021/10/18 04:54:35;;;;;;;18.37;13.50;;;;;;;;;;6230631;28;20200;-55
2021/10/18 04:57:56;;;;;;;16.37;13.83;;;;;;;;;;6219287;28;20323;-54
2021/10/18 05:01:18;;;;;;;14.47;12.37;;;;;;;;;;6211680;28;20193;-55
2021/10/18 05:04:39;;;;;;;15.80;13.73;;;;;;;;;;6225236;28;20653;-57
2021/10/18 05:08:03;;;;;;;16.17;13.10;;;;;;;;;;6212195;28;20648;-55
2021/10/18 05:11:23;;;;;;;15.27;13.60;;;;;;;;;;6218709;28;20217;-56
2021/10/18 05:14:43;;;;;;;18.43;12.83;;;;;;;;;;6227198;28;20299;-56
2021/10/18 05:18:06;;;;;;;15.03;12.37;;;;;;;;;;6198621;28;20334;-56
2021/10/18 05:21:26;;;;;;;17.90;13.20;;;;;;;;;;6220456;28;20221;-53
2021/10/18 05:24:47;;;;;;;14.17;12.77;;;;;;;;;;6230721;28;20205;-57
2021/10/18 05:28:08;;;;;;;14.07;12.70;;;;;;;;;;6221589;28;20800;-56
2021/10/18 05:31:29;;;;;;;15.10;11.77;;;;;;;;;;6222118;28;20280;-52
2021/10/18 05:34:51;;;;;;;14.13;11.83;;;;;;;;;;6232065;28;20197;-52
2021/10/18 05:38:12;;;;;;;14.20;12.70;;;;;;;;;;6215319;28;20237;-57
2021/10/18 05:41:32;;;;;;;16.57;13.60;;;;;;;;;;6214438;28;20237;-53
2021/10/18 05:44:53;;;;;;;15.57;13.83;;;;;;;;;;6217260;28;20216;-55
2021/10/18 05:48:15;;;;;;;14.33;11.77;;;;;;;;;;6217807;28;20243;-56
2021/10/18 05:51:37;;;;;;;17.10;12.43;;;;;;;;;;6220111;28;20225;-58
2021/10/18 05:54:58;;;;;;;15.33;12.77;;;;;;;;;;6231903;28;20249;-56
2021/10/18 05:58:19;;;;;;;17.50;12.80;;;;;;;;;;6216060;28;20307;-56
2021/10/18 06:01:39;;;;;;;16.90;15.10;;;;;;;;;;6220935;28;20229;-55
2021/10/18 06:05:00;;;;;;;15.47;12.73;;;;;;;;;;6225467;28;20236;-54
2021/10/18 06:08:22;;;;;;;13.80;12.10;;;;;;;;;;6213759;28;20366;-56
2021/10/18 06:11:45;;;;;;;15.10;12.43;;;;;;;;;;6214320;28;20949;-52
2021/10/18 06:15:06;;;;;;;12.33;10.60;;;;;;;;;;6227733;28;20381;-57
2021/10/18 06:18:27;;;;;;;15.60;13.20;;;;;;;;;;6228499;28;20225;-58
2021/10/18 06:21:47;;;;;;;14.03;11.30;;;;;;;;;;6229262;28;20233;-57
2021/10/18 06:25:10;;;;;;;13.27;12.03;;;;;;;;;;6232021;28;20201;-55
2021/10/18 06:28:30;;;;;;;13.07;11.50;;;;;;;;;;6220297;28;20236;-54
2021/10/18 06:31:51;;;;;;;16.00;10.53;;;;;;;;;;6222483;28;20225;-56
2021/10/18 06:35:12;;;;;;;15.60;12.30;;;;;;;;;;6229487;28;20193;-56
2021/10/18 06:38:32;;;;;;;17.10;12.50;;;;;;;;;;6215246;28;20232;-53
2021/10/18 06:41:55;;;;;;;15.20;11.23;;;;;;;;;;6214794;28;20245;-55
2021/10/18 06:45:16;;;;;;;12.77;11.50;;;;;;;;;;6229055;28;20200;-54
2021/10/18 06:48:37;;;;;;;14.57;12.47;;;;;;;;;;6217497;28;20252;-56
2021/10/18 06:51:58;;;;;;;15.93;12.60;;;;;;;;;;6218737;28;20647;-50
2021/10/18 06:55:20;;;;;;;14.73;11.93;;;;;;;;;;6231379;28;20371;-53
2021/10/18 06:58:42;;;;;;;16.30;12.53;;;;;;;;;;6211662;28;20256;-56
2021/10/18 07:02:03;;;;;;;15.83;11.30;;;;;;;;;;6212659;28;20363;-52
2021/10/18 07:05:23;;;;;;;16.57;13.43;;;;;;;;;;6222986;28;20695;-56
2021/10/18 07:08:44;;;;;;;13.07;11.60;;;;;;;;;;6206626;28;20225;-54
2021/10/18 07:12:04;;;;;;;15.23;11.67;;;;;;;;;;6225198;28;20236;-56
2021/10/18 07:15:27;;;;;;;16.37;12.03;;;;;;;;;;6234985;28;20221;-56
2021/10/18 07:18:47;;;;;;;13.10;10.50;;;;;;;;;;6227752;28;20236;-55
2021/10/18 07:22:08;;;;;;;12.53;10.50;;;;;;;;;;6224571;28;20394;-56
2021/10/18 07:25:28;;;;;;;14.57;11.47;;;;;;;;;;6237890;28;20212;-56
2021/10/18 07:28:50;;;;;;;12.33;11.10;;;;;;;;;;6222341;28;20229;-52
2021/10/18 07:32:11;;;;;;;12.53;10.70;;;;;;;;;;6227302;28;20622;-56
2021/10/18 07:35:33;;;;;;;11.97;10.30;;;;;;;;;;6235621;28;20197;-56
2021/10/18 07:38:55;;;;;;;12.80;11.27;;;;;;;;;;6227159;28;20252;-57
2021/10/18 07:42:16;;;;;;;11.93;10.73;;;;;;;;;;6225077;28;20220;-51
2021/10/18 07:45:36;;;;;;;12.10;10.90;;;;;;;;;;6234306;28;20201;-55
2021/10/18 07:48:59;;;;;;;12.07;10.13;;;;;;;;;;6227388;28;20319;-58
2021/10/18 07:52:20;;;;;;;12.47;11.17;;;;;;;;;;6223747;28;20225;-53
2021/10/18 07:55:40;;;;;;;13.40;10.43;;;;;;;;;;6240243;28;20197;-55
2021/10/18 07:59:01;;;;;;;11.93;10.30;;;;;;;;;;6230728;28;20629;-55
2021/10/18 08:02:21;;;;;;;12.63;10.07;;;;;;;;;;6222969;28;20569;-53
2021/10/18 08:05:43;;;;;;;10.90;9.33;;;;;;;;;;6236485;28;20197;-56
2021/10/18 08:09:07;;;;;;;11.63;10.53;;;;;;;;;;6222595;28;20256;-55
2021/10/18 08:12:27;;;;;;;11.57;10.40;;;;;;;;;;6225304;28;20406;-54
2021/10/18 08:15:48;;;;;;;12.53;11.10;;;;;;;;;;6238226;28;20209;-56
2021/10/18 08:19:08;;;;;;;12.13;10.93;;;;;;;;;;6229856;28;20319;-56
2021/10/18 08:22:30;;;;;;;11.63;10.43;;;;;;;;;;6225515;28;20233;-53
2021/10/18 08:25:51;;;;;;;12.27;10.97;;;;;;;;;;6242553;28;20205;-58
2021/10/18 08:29:13;;;;;;;16.83;10.63;;;;;;;;;;6228046;28;20243;-59
2021/10/18 08:32:34;;;;;;;11.13;10.13;;;;;;;;;;6225177;28;20240;-55
2021/10/18 08:35:54;;;;;;;13.87;9.13;;;;;;;;;;6235671;28;20279;-58
2021/10/18 08:42:58;;;;;;;14.17;10.30;;;;;;;;;;6224434;28;20289;-54
2021/10/18 08:46:20;;;;;;;12.23;11.13;;;;;;;;;;6225771;28;20284;-53
2021/10/18 08:49:41;;;;;;;13.57;10.60;;;;;;;;;;6234927;28;20607;-55
2021/10/18 08:53:02;;;;;;;11.23;10.07;;;;;;;;;;6224555;28;20232;-53
2021/10/18 08:56:24;;;;;;;13.47;10.70;;;;;;;;;;6229588;28;20261;-56
2021/10/18 08:59:44;;;;;;;14.73;9.20;;;;;;;;;;6241751;28;20209;-55
2021/10/18 09:03:14;;;;;;;11.00;9.90;;;;;;;;;;6230524;28;20224;-57
2021/10/18 09:06:43;;;;;;;11.17;8.43;;;;;;;;;;6227190;28;20327;-54
2021/10/18 09:10:10;;;;;;;11.03;9.83;;;;;;;;;;6239117;28;20232;-55
2021/10/18 09:13:32;;;;;;;16.83;11.30;;;;;;;;;;6225392;28;20319;-54
2021/10/18 09:16:53;;;;;;;11.67;10.43;;;;;;;;;;6225102;28;20308;-56
2021/10/18 09:20:22;;;;;;;11.77;9.27;;;;;;;;;;6238301;28;20205;-54
2021/10/18 09:23:43;;;;;;;12.40;9.90;;;;;;;;;;6229174;28;20231;-52
2021/10/18 09:27:04;;;;;;;13.43;9.07;;;;;;;;;;6225840;28;20617;-55
2021/10/18 09:30:37;;;;;;;9.60;7.53;;;;;;;;;;6235155;28;20700;-55
2021/10/18 09:34:03;;;;;;;11.57;9.47;;;;;;;;;;6229252;28;20319;-56
2021/10/18 09:37:24;;;;;;;11.30;10.13;;;;;;;;;;6231748;28;20236;-52
2021/10/18 09:40:45;;;;;;;14.00;9.30;;;;;;;;;;6241022;28;20204;-57
2021/10/18 09:44:14;;;;;;;10.90;9.80;;;;;;;;;;6225229;28;20688;-56
2021/10/18 09:48:05;;;;;;;11.37;9.37;;;;;;;;;;6226707;28;20433;-54
2021/10/18 10:54:06;;;;;;;8.03;7.33;;;;;;;;;;6227684;28;20247;-55
2021/10/18 10:57:31;;;;;;;9.00;7.93;;;;;;;;;;6216189;28;20229;-55
2021/10/18 11:00:52;;;;;;;12.23;8.43;;;;;;;;;;6238158;28;20209;-55
2021/10/18 11:04:43;;;;;;;10.97;8.77;;;;;;;;;;6226800;28;20232;-56
2021/10/18 11:08:04;;;;;;;8.03;7.10;;;;;;;;;;6161496;28;20238;-53
2021/10/18 11:11:26;;;;;;;9.93;6.40;;;;;;;;;;6227333;28;20604;-52
2021/10/18 11:14:51;;;;;;;9.23;7.97;;;;;;;;;;6236182;28;20216;-54
2021/10/18 11:18:23;;;;;;;14.33;7.37;;;;;;;;;;6229761;28;20607;-55
2021/10/18 11:21:44;;;;;;;9.93;7.17;;;;;;;;;;6224058;28;20232;-55
2021/10/18 11:25:06;;;;;;;7.67;6.83;;;;;;;;;;6243041;28;20197;-54
2021/10/18 11:28:27;;;;;;;8.27;7.43;;;;;;;;;;6224916;28;20764;-54
2021/10/18 11:31:47;;;;;;;7.77;7.00;;;;;;;;;;6223314;28;20315;-55
2021/10/18 11:35:11;;;;;;;8.70;6.57;;;;;;;;;;6236109;28;20301;-54
2021/10/18 11:38:32;;;;;;;10.80;7.13;;;;;;;;;;6229019;28;20228;-54
2021/10/18 11:42:10;;;;;;;8.43;6.83;;;;;;;;;;6226872;28;20610;-57
2021/10/18 11:45:31;;;;;;;8.20;7.43;;;;;;;;;;6240457;28;20244;-50
2021/10/18 11:48:52;;;;;;;9.17;7.07;;;;;;;;;;6228933;28;20233;-53
2021/10/18 11:52:14;;;;;;;11.23;9.30;;;;;;;;;;6221924;28;20493;-53
2021/10/18 11:55:37;;;;;;;10.37;7.67;;;;;;;;;;6241186;28;20209;-57
2021/10/18 11:59:05;;;;;;;9.73;8.07;;;;;;;;;;6228257;28;20224;-55
2021/10/18 12:02:25;;;;;;;15.70;8.97;;;;;;;;;;6227557;28;20224;-55
2021/10/18 12:05:47;;;;;;;11.43;10.23;;;;;;;;;;6220870;28;20201;-56
2021/10/18 12:09:09;;;;;;;9.57;8.53;;;;;;;;;;6205976;28;20948;-56
2021/10/18 12:12:30;;;;;;;14.63;8.73;;;;;;;;;;6223073;28;20272;-57
2021/10/18 12:15:52;;;;;;;9.00;8.13;;;;;;;;;;6233060;28;20590;-54
2021/10/18 12:19:13;;;;;;;9.37;8.47;;;;;;;;;;6224844;28;20321;-54
2021/10/18 12:22:33;;;;;;;10.77;9.07;;;;;;;;;;6225214;28;20347;-55
2021/10/18 12:25:57;;;;;;;10.87;9.50;;;;;;;;;;6236217;28;20196;-52
2021/10/18 12:29:18;;;;;;;12.73;8.97;;;;;;;;;;6204185;28;20229;-52
2021/10/18 12:32:39;;;;;;;9.83;8.73;;;;;;;;;;6225311;28;20228;-53
2021/10/18 12:36:01;;;;;;;12.57;8.53;;;;;;;;;;6234546;28;20241;-53
2021/10/18 12:39:32;;;;;;;10.03;8.93;;;;;;;;;;6239482;28;20300;-54
2021/10/18 12:42:54;;;;;;;11.67;8.07;;;;;;;;;;6227356;28;20610;-52
2021/10/18 12:46:18;;;;;;;8.40;7.60;;;;;;;;;;6230533;28;20327;-52
2021/10/18 12:49:38;;;;;;;9.50;7.90;;;;;;;;;;6235936;28;20220;-55
2021/10/18 12:53:00;;;;;;;11.27;7.87;;;;;;;;;;6225529;28;21801;-51
2021/10/18 12:56:23;;;;;;;8.30;7.50;;;;;;;;;;6222687;28;20200;-53
2021/10/18 13:00:01;;;;;;;11.97;8.17;;;;;;;;;;6232190;28;20638;-49
2021/10/18 13:03:23;;;;;;;8.77;7.90;;;;;;;;;;6226070;28;20232;-54
2021/10/18 13:06:44;;;;;;;8.87;8.07;;;;;;;;;;6225411;28;20323;-52
2021/10/18 13:10:05;;;;;;;8.27;7.43;;;;;;;;;;6236382;28;20221;-55
2021/10/18 13:13:27;;;;;;;11.27;8.17;;;;;;;;;;6224763;28;20701;-51
2021/10/18 13:16:49;;;;;;;9.13;8.23;;;;;;;;;;6227622;28;20229;-54
2021/10/18 13:20:11;;;;;;;8.60;7.80;;;;;;;;;;6236764;28;20197;-55
2021/10/18 13:23:31;;;;;;;8.87;7.57;;;;;;;;;;6224434;28;20236;-53
2021/10/18 13:26:55;;;;;;;9.67;7.33;;;;;;;;;;6219400;28;20237;-57
2021/10/18 13:30:15;;;;;;;8.63;7.67;;;;;;;;;;6224547;28;20225;-48
2021/10/18 13:33:37;;;;;;;10.63;8.00;;;;;;;;;;6225228;28;20229;-56
2021/10/18 13:36:59;;;;;;;8.93;7.13;;;;;;;;;;6224107;28;20248;-53
2021/10/18 13:40:21;;;;;;;10.70;8.10;;;;;;;;;;6231324;28;20200;-53
2021/10/18 13:43:42;;;;;;;7.97;7.27;;;;;;;;;;6232446;28;20252;-55
2021/10/18 13:47:03;;;;;;;7.77;6.97;;;;;;;;;;6230226;28;20225;-53
2021/10/18 13:50:25;;;;;;;8.77;6.50;;;;;;;;;;6238653;28;20224;-52
2021/10/18 13:53:46;;;;;;;8.60;7.80;;;;;;;;;;6227266;28;20228;-50
2021/10/18 13:57:07;;;;;;;6.50;5.83;;;;;;;;;;6231010;28;20610;-54
2021/10/18 14:00:27;;;;;;;8.43;6.30;;;;;;;;;;6236625;28;20193;-55
2021/10/18 14:03:48;;;;;;;7.10;6.27;;;;;;;;;;6215265;28;20220;-52
2021/10/18 14:07:13;;;;;;;6.03;5.43;;;;;;;;;;6225762;28;20251;-50
2021/10/18 14:10:33;;;;;;;6.03;5.53;;;;;;;;;;6234861;28;20260;-51
2021/10/18 14:13:54;;;;;;;8.40;6.90;;;;;;;;;;6230442;28;20232;-50
2021/10/18 14:17:15;;;;;;;7.23;6.10;;;;;;;;;;6223973;28;20233;-54
2021/10/18 14:20:37;;;;;;;7.47;6.43;;;;;;;;;;6238122;28;20193;-53
2021/10/18 14:23:59;;;;;;;6.80;5.53;;;;;;;;;;6225670;28;20351;-55
2021/10/18 14:27:19;;;;;;;9.03;6.13;;;;;;;;;;6227894;28;20236;-52
2021/10/18 14:30:40;;;;;;;6.80;6.20;;;;;;;;;;6234486;28;20775;-51
2021/10/18 14:34:00;;;;;;;5.63;4.73;;;;;;;;;;6227045;28;20228;-57
2021/10/18 14:37:21;;;;;;;8.43;6.33;;;;;;;;;;6230288;28;20255;-57
2021/10/18 14:40:43;;;;;;;10.37;5.50;;;;;;;;;;6239185;28;20193;-51
2021/10/18 14:44:06;;;;;;;6.83;5.37;;;;;;;;;;6225564;28;20232;-55
2021/10/18 14:47:27;;;;;;;9.53;5.53;;;;;;;;;;6227254;28;20223;-56
2021/10/18 14:50:47;;;;;;;8.97;5.27;;;;;;;;;;6232147;28;20415;-56
2021/10/18 14:54:10;;;;;;;5.87;5.27;;;;;;;;;;6218170;28;20236;-55
2021/10/18 15:01:03;;;;;;;8.37;5.43;;;;;;;;;;6104501;23;20618;-55
2021/10/18 15:04:24;;;;;;;4.43;3.53;;;;;;;;;;6080422;29;20508;-55
2021/10/18 15:07:45;;;;;;;5.97;4.67;;;;;;;;;;6074207;29;20244;-53
2021/10/18 15:11:07;;;;;;;3.87;3.57;;;;;;;;;;6067689;29;20308;-56
2021/10/18 15:14:28;;;;;;;5.03;3.70;;;;;;;;;;6071284;29;20214;-54
2021/10/18 15:17:50;;;;;;;4.23;3.13;;;;;;;;;;6064348;29;20236;-54
2021/10/18 15:21:12;;;;;;;3.77;3.00;;;;;;;;;;6073036;29;20194;-55
2021/10/18 15:24:32;;;;;;;8.40;7.17;;;;;;;;;;6072920;29;20321;-55
2021/10/18 15:27:53;;;;;;;5.60;4.23;;;;;;;;;;6067353;29;20233;-53
2021/10/18 15:31:14;;;;;;;6.63;5.63;;;;;;;;;;6073783;29;20974;-56
2021/10/18 15:34:39;;;;;;;7.70;3.80;;;;;;;;;;6074343;29;20509;-56
2021/10/18 15:38:00;;;;;;;4.67;3.37;;;;;;;;;;6065305;29;20237;-50
2021/10/18 15:41:21;;;;;;;6.17;3.90;;;;;;;;;;6069671;29;20209;-55
2021/10/18 15:44:41;;;;;;;6.90;3.20;;;;;;;;;;6082556;29;20201;-55
2021/10/18 15:48:02;;;;;;;8.17;4.07;;;;;;;;;;6059484;29;20238;-55
2021/10/18 15:51:23;;;;;;;3.70;3.20;;;;;;;;;;6065455;29;20229;-55
2021/10/18 15:54:44;;;;;;;3.97;3.57;;;;;;;;;;6073899;29;20190;-53
2021/10/18 15:58:06;;;;;;;5.33;3.93;;;;;;;;;;6080208;29;20228;-54
2021/10/18 16:01:26;;;;;;;4.00;3.50;;;;;;;;;;6062299;29;20852;-55
2021/10/18 16:04:47;;;;;;;5.20;3.47;;;;;;;;;;6059752;29;20241;-54
2021/10/18 16:08:10;;;;;;;3.90;3.50;;;;;;;;;;6040187;29;20259;-55
2021/10/18 16:11:30;;;;;;;4.87;3.57;;;;;;;;;;6038512;29;20222;-56
2021/10/18 16:14:51;;;;;;;5.17;3.60;;;;;;;;;;6047779;29;20214;-53
2021/10/18 16:18:11;;;;;;;6.70;4.40;;;;;;;;;;6053343;29;20615;-55
2021/10/18 16:21:32;;;;;;;4.63;3.87;;;;;;;;;;6038535;29;20210;-52
2021/10/18 16:24:54;;;;;;;6.00;3.70;;;;;;;;;;6060852;29;20195;-54
2021/10/18 16:28:14;;;;;;;7.00;4.10;;;;;;;;;;6040916;29;21025;-55
2021/10/18 16:31:35;;;;;;;6.07;4.83;;;;;;;;;;6044639;29;20240;-54
2021/10/18 16:34:55;;;;;;;11.07;4.73;;;;;;;;;;6077042;29;21132;-57
2021/10/18 16:38:16;;;;;;;5.33;3.83;;;;;;;;;;6058454;29;20237;-55
2021/10/18 16:41:39;;;;;;;4.67;3.17;;;;;;;;;;6061326;29;20244;-56
2021/10/18 16:44:59;;;;;;;5.20;3.70;;;;;;;;;;6081173;29;20197;-56
2021/10/18 16:48:20;;;;;;;6.40;3.83;;;;;;;;;;6072559;29;20232;-52
2021/10/18 16:51:44;;;;;;;7.00;4.77;;;;;;;;;;6058233;29;20240;-56
2021/10/18 16:55:06;;;;;;;5.80;4.53;;;;;;;;;;6065582;29;20209;-55
2021/10/18 16:58:28;;;;;;;7.80;4.07;;;;;;;;;;6047606;29;20228;-52
2021/10/18 17:01:48;;;;;;;4.40;4.03;;;;;;;;;;6046930;29;20241;-54
2021/10/18 17:05:09;;;;;;;5.20;4.47;;;;;;;;;;6058826;29;20205;-54
2021/10/18 17:08:30;;;;;;;4.10;3.70;;;;;;;;;;6055692;29;20655;-54
2021/10/18 17:11:51;;;;;;;5.07;4.57;;;;;;;;;;6058336;29;20229;-55
2021/10/18 17:15:13;;;;;;;4.83;4.20;;;;;;;;;;6072770;29;20305;-55
2021/10/18 17:18:34;;;;;;;3.57;3.27;;;;;;;;;;6076878;29;20340;-52
2021/10/18 17:21:55;;;;;;;4.33;4.00;;;;;;;;;;6070775;29;20236;-52
2021/10/18 17:25:15;;;;;;;4.70;4.30;;;;;;;;;;6071274;29;20189;-54
2021/10/18 17:28:36;;;;;;;6.83;4.13;;;;;;;;;;6076092;29;20631;-55
2021/10/18 17:31:58;;;;;;;3.97;3.67;;;;;;;;;;6065371;29;20343;-53
2021/10/18 17:35:19;;;;;;;4.83;4.33;;;;;;;;;;6077527;29;20202;-54
2021/10/18 17:38:39;;;;;;;4.43;4.03;;;;;;;;;;6066517;29;20673;-56
2021/10/18 17:42:00;;;;;;;9.30;5.83;;;;;;;;;;6058320;29;20256;-56
2021/10/18 17:45:21;;;;;;;6.37;5.77;;;;;;;;;;6071209;29;20198;-52
2021/10/18 17:48:43;;;;;;;7.17;6.20;;;;;;;;;;6070984;29;20229;-58
2021/10/18 17:52:04;;;;;;;11.17;6.60;;;;;;;;;;6062640;29;20747;-56
2021/10/18 17:55:25;;;;;;;6.77;5.87;;;;;;;;;;6069899;29;20209;-54
2021/10/18 17:58:46;;;;;;;9.07;7.77;;;;;;;;;;6075442;29;20320;-54
2021/10/18 18:02:06;;;;;;;7.77;7.07;;;;;;;;;;6058636;29;20233;-54
2021/10/18 18:05:28;;;;;;;8.77;6.70;;;;;;;;;;6072524;29;20209;-55
2021/10/18 18:08:50;;;;;;;12.70;7.03;;;;;;;;;;6077244;29;20236;-53
2021/10/18 18:12:11;;;;;;;8.83;7.60;;;;;;;;;;6064580;29;20244;-54
2021/10/18 18:15:35;;;;;;;8.37;7.50;;;;;;;;;;6078026;29;20205;-53
2021/10/18 18:18:55;;;;;;;8.90;5.53;;;;;;;;;;6076887;29;20237;-54
2021/10/18 18:22:17;;;;;;;5.83;5.03;;;;;;;;;;6063589;29;20642;-53
2021/10/18 18:25:38;;;;;;;5.73;5.13;;;;;;;;;;6071630;29;20213;-53
2021/10/18 18:28:59;;;;;;;6.23;5.53;;;;;;;;;;6076992;29;20613;-53
2021/10/18 18:32:20;;;;;;;6.23;5.60;;;;;;;;;;6059945;29;20241;-56
2021/10/18 18:35:40;;;;;;;6.43;5.93;;;;;;;;;;6067712;29;20197;-50
2021/10/18 18:39:03;;;;;;;6.03;5.43;;;;;;;;;;6074110;29;20244;-55
2021/10/18 18:42:23;;;;;;;6.60;5.80;;;;;;;;;;6059907;29;20710;-57
2021/10/18 18:45:44;;;;;;;8.80;6.00;;;;;;;;;;6067405;29;20205;-56
2021/10/18 18:49:04;;;;;;;6.30;5.60;;;;;;;;;;6065653;29;20264;-55
2021/10/18 18:52:25;;;;;;;8.40;5.60;;;;;;;;;;6056099;29;20237;-57
2021/10/18 18:55:47;;;;;;;7.67;4.40;;;;;;;;;;6068368;29;20198;-58
2021/10/18 18:59:07;;;;;;;6.70;6.03;;;;;;;;;;6070629;29;20241;-55
2021/10/18 19:02:28;;;;;;;6.93;5.73;;;;;;;;;;6065830;29;20240;-57
2021/10/18 19:05:49;;;;;;;7.97;6.67;;;;;;;;;;6069074;29;20202;-57
2021/10/18 19:09:09;;;;;;;8.30;5.83;;;;;;;;;;6069146;29;20233;-57
2021/10/18 19:12:32;;;;;;;11.30;6.57;;;;;;;;;;6049757;29;20702;-52
2021/10/18 19:15:53;;;;;;;6.37;5.43;;;;;;;;;;6064795;29;20471;-55
2021/10/18 19:19:15;;;;;;;6.27;5.53;;;;;;;;;;6074259;29;20229;-54
2021/10/18 19:22:38;;;;;;;5.70;5.20;;;;;;;;;;6056776;29;20236;-55
2021/10/18 19:25:58;;;;;;;5.37;4.70;;;;;;;;;;6074057;29;20268;-57
2021/10/18 19:29:23;;;;;;;6.20;4.87;;;;;;;;;;6073386;29;20237;-54
2021/10/18 19:32:44;;;;;;;6.03;5.47;;;;;;;;;;6065578;29;20228;-53
2021/10/18 19:36:05;;;;;;;6.57;4.97;;;;;;;;;;6074038;29;20209;-55
2021/10/18 19:39:25;;;;;;;6.43;5.70;;;;;;;;;;6063260;29;20237;-55
2021/10/18 19:42:46;;;;;;;5.37;4.87;;;;;;;;;;6060059;29;20323;-56
2021/10/18 19:46:08;;;;;;;7.63;6.10;;;;;;;;;;6066089;29;20206;-55
2021/10/18 19:49:30;;;;;;;6.17;5.43;;;;;;;;;;6064322;29;20240;-51
2021/10/18 19:52:51;;;;;;;6.07;5.47;;;;;;;;;;6066337;29;20481;-52
2021/10/18 19:56:11;;;;;;;6.63;5.87;;;;;;;;;;6065239;29;20245;-56
2021/10/18 19:59:32;;;;;;;9.00;6.37;;;;;;;;;;6061514;29;20241;-51
2021/10/18 20:02:54;;;;;;;8.23;7.37;;;;;;;;;;6064660;29;20237;-54
2021/10/18 20:06:14;;;;;;;9.23;6.67;;;;;;;;;;6068807;29;20855;-56
2021/10/18 20:09:35;;;;;;;6.70;6.00;;;;;;;;;;6064945;29;20650;-56
2021/10/18 20:12:55;;;;;;;6.83;6.07;;;;;;;;;;6050217;29;20259;-55
2021/10/18 20:16:16;;;;;;;7.27;5.97;;;;;;;;;;6064520;29;20264;-56
2021/10/18 20:19:38;;;;;;;9.57;7.43;;;;;;;;;;6063057;29;20224;-51
2021/10/18 20:22:58;;;;;;;7.20;5.03;;;;;;;;;;6068013;29;20702;-56
2021/10/18 20:26:19;;;;;;;6.73;5.93;;;;;;;;;;6053930;29;20301;-53
2021/10/18 20:29:43;;;;;;;7.53;6.57;;;;;;;;;;6054590;29;20214;-54
2021/10/18 20:33:03;;;;;;;6.53;5.93;;;;;;;;;;6065982;29;20253;-55
2021/10/18 20:36:25;;;;;;;8.23;6.63;;;;;;;;;;6056400;29;20217;-54
2021/10/18 20:39:45;;;;;;;6.10;5.53;;;;;;;;;;6074049;29;20194;-56
2021/10/18 20:43:06;;;;;;;7.50;6.07;;;;;;;;;;6067813;29;20846;-54
2021/10/18 20:46:28;;;;;;;7.43;6.43;;;;;;;;;;6056597;29;20222;-52
2021/10/18 20:49:48;;;;;;;6.83;6.23;;;;;;;;;;6075240;29;20198;-54
2021/10/18 20:53:11;;;;;;;5.97;5.47;;;;;;;;;;6070381;29;20240;-55
2021/10/18 20:56:31;;;;;;;7.07;6.37;;;;;;;;;;6053000;29;20217;-54
2021/10/18 20:59:51;;;;;;;6.70;6.10;;;;;;;;;;6079766;29;20316;-54
2021/10/18 21:03:12;;;;;;;8.07;6.20;;;;;;;;;;6071275;29;20579;-56